sensor_id;sensor_type;location;lat;lon;timestamp;pressure;altitude;pressure_sealevel;temperature;humidity
62725;BME280;49026;52.600;4.694;2022-09-09T00:01:30;100672.03;;;15.11;68.93
62725;BME280;49026;52.600;4.694;2022-09-09T00:04:27;100665.03;;;15.10;69.03
62725;BME280;49026;52.600;4.694;2022-09-09T00:07:14;100655.50;;;15.07;69.01
62725;BME280;49026;52.600;4.694;2022-09-09T00:12:25;100659.06;;;15.06;69.32
62725;BME280;49026;52.600;4.694;2022-09-09T00:15:07;100655.03;;;15.00;69.06
62725;BME280;49026;52.600;4.694;2022-09-09T00:17:42;100652.75;;;14.94;68.62
62725;BME280;49026;52.600;4.694;2022-09-09T00:22:53;100662.09;;;14.86;68.78
62725;BME280;49026;52.600;4.694;2022-09-09T00:25:29;100661.53;;;14.80;68.83
62725;BME280;49026;52.600;4.694;2022-09-09T00:27:57;100654.91;;;14.73;68.73
62725;BME280;49026;52.600;4.694;2022-09-09T00:30:24;100654.31;;;14.68;69.04
62725;BME280;49026;52.600;4.694;2022-09-09T00:32:55;100660.00;;;14.62;68.80
62725;BME280;49026;52.600;4.694;2022-09-09T00:35:32;100667.34;;;14.57;69.36
62725;BME280;49026;52.600;4.694;2022-09-09T00:38:12;100665.03;;;14.51;69.23
62725;BME280;49026;52.600;4.694;2022-09-09T00:40:56;100663.63;;;14.45;68.97
62725;BME280;49026;52.600;4.694;2022-09-09T00:43:30;100667.38;;;14.41;69.18
62725;BME280;49026;52.600;4.694;2022-09-09T00:49:32;100658.19;;;14.32;69.00
62725;BME280;49026;52.600;4.694;2022-09-09T00:52:01;100652.25;;;14.29;69.36
62725;BME280;49026;52.600;4.694;2022-09-09T00:54:48;100647.06;;;14.27;69.61
62725;BME280;49026;52.600;4.694;2022-09-09T00:57:35;100641.75;;;14.27;71.95
62725;BME280;49026;52.600;4.694;2022-09-09T01:00:16;100637.50;;;14.24;70.80
62725;BME280;49026;52.600;4.694;2022-09-09T01:11:25;100632.47;;;14.20;70.15
62725;BME280;49026;52.600;4.694;2022-09-09T01:14:16;100624.75;;;14.17;69.77
62725;BME280;49026;52.600;4.694;2022-09-09T01:16:45;100622.28;;;14.14;69.62
62725;BME280;49026;52.600;4.694;2022-09-09T01:19:21;100623.22;;;14.13;69.45
62725;BME280;49026;52.600;4.694;2022-09-09T01:22:57;100627.66;;;14.12;69.42
62725;BME280;49026;52.600;4.694;2022-09-09T01:25:09;100623.13;;;14.14;70.84
62725;BME280;49026;52.600;4.694;2022-09-09T01:27:39;100618.59;;;14.16;71.20
62725;BME280;49026;52.600;4.694;2022-09-09T01:30:11;100621.91;;;14.20;70.40
62725;BME280;49026;52.600;4.694;2022-09-09T01:32:52;100624.28;;;14.24;69.95
62725;BME280;49026;52.600;4.694;2022-09-09T01:35:22;100621.38;;;14.29;76.49
62725;BME280;49026;52.600;4.694;2022-09-09T01:37:55;100614.28;;;14.30;73.34
62725;BME280;49026;52.600;4.694;2022-09-09T01:40:21;100626.47;;;14.32;71.07
62725;BME280;49026;52.600;4.694;2022-09-09T01:42:49;100619.41;;;14.33;70.61
62725;BME280;49026;52.600;4.694;2022-09-09T01:45:14;100618.47;;;14.34;70.36
62725;BME280;49026;52.600;4.694;2022-09-09T01:47:42;100622.03;;;14.33;70.70
62725;BME280;49026;52.600;4.694;2022-09-09T01:50:10;100620.44;;;14.30;70.10
62725;BME280;49026;52.600;4.694;2022-09-09T01:52:37;100615.34;;;14.27;70.05
62725;BME280;49026;52.600;4.694;2022-09-09T01:55:04;100617.41;;;14.22;70.51
62725;BME280;49026;52.600;4.694;2022-09-09T02:00:11;100618.59;;;14.16;70.94
62725;BME280;49026;52.600;4.694;2022-09-09T02:05:49;100611.03;;;14.10;70.16
62725;BME280;49026;52.600;4.694;2022-09-09T02:09:07;100604.31;;;14.04;70.12
62725;BME280;49026;52.600;4.694;2022-09-09T02:11:22;100607.34;;;13.98;70.35
62725;BME280;49026;52.600;4.694;2022-09-09T02:13:49;100612.88;;;13.94;72.13
62725;BME280;49026;52.600;4.694;2022-09-09T02:16:34;100613.13;;;13.89;71.04
62725;BME280;49026;52.600;4.694;2022-09-09T02:19:15;100615.19;;;13.84;70.82
62725;BME280;49026;52.600;4.694;2022-09-09T02:21:54;100614.59;;;13.79;71.00
62725;BME280;49026;52.600;4.694;2022-09-09T02:24:21;100620.06;;;13.76;70.91
62725;BME280;49026;52.600;4.694;2022-09-09T02:26:51;100608.81;;;13.72;70.54
62725;BME280;49026;52.600;4.694;2022-09-09T02:29:25;100613.34;;;13.70;70.46
62725;BME280;49026;52.600;4.694;2022-09-09T02:31:52;100613.59;;;13.65;70.63
62725;BME280;49026;52.600;4.694;2022-09-09T02:34:21;100618.13;;;13.63;71.46
62725;BME280;49026;52.600;4.694;2022-09-09T02:36:50;100607.72;;;13.60;71.11
62725;BME280;49026;52.600;4.694;2022-09-09T02:39:20;100606.19;;;13.56;71.25
62725;BME280;49026;52.600;4.694;2022-09-09T02:41:48;100601.94;;;13.53;70.81
62725;BME280;49026;52.600;4.694;2022-09-09T02:44:16;100600.16;;;13.54;71.04
62725;BME280;49026;52.600;4.694;2022-09-09T02:50:06;100596.00;;;13.50;71.45
62725;BME280;49026;52.600;4.694;2022-09-09T02:55:09;100592.56;;;13.48;71.28
62725;BME280;49026;52.600;4.694;2022-09-09T02:57:41;100597.75;;;13.49;73.25
62725;BME280;49026;52.600;4.694;2022-09-09T03:00:09;100595.78;;;13.53;71.50
62725;BME280;49026;52.600;4.694;2022-09-09T03:02:36;100595.63;;;13.56;71.46
62725;BME280;49026;52.600;4.694;2022-09-09T03:05:06;100596.41;;;13.58;71.71
62725;BME280;49026;52.600;4.694;2022-09-09T03:07:33;100589.25;;;13.60;71.42
62725;BME280;49026;52.600;4.694;2022-09-09T03:09:59;100591.53;;;13.66;72.31
62725;BME280;49026;52.600;4.694;2022-09-09T03:12:24;100592.22;;;13.70;73.83
62725;BME280;49026;52.600;4.694;2022-09-09T03:14:49;100599.84;;;13.75;72.74
62725;BME280;49026;52.600;4.694;2022-09-09T03:17:15;100598.84;;;13.77;73.66
62725;BME280;49026;52.600;4.694;2022-09-09T03:19:42;100592.53;;;13.80;73.19
62725;BME280;49026;52.600;4.694;2022-09-09T03:22:10;100586.13;;;13.84;73.80
62725;BME280;49026;52.600;4.694;2022-09-09T03:24:36;100582.44;;;13.86;72.53
62725;BME280;49026;52.600;4.694;2022-09-09T03:27:01;100583.25;;;13.88;72.28
62725;BME280;49026;52.600;4.694;2022-09-09T03:29:26;100587.47;;;13.91;73.38
62725;BME280;49026;52.600;4.694;2022-09-09T03:31:52;100581.25;;;13.92;73.13
62725;BME280;49026;52.600;4.694;2022-09-09T03:34:17;100580.44;;;13.92;73.32
62725;BME280;49026;52.600;4.694;2022-09-09T03:36:42;100584.84;;;13.91;72.93
62725;BME280;49026;52.600;4.694;2022-09-09T03:39:07;100579.56;;;13.91;72.28
62725;BME280;49026;52.600;4.694;2022-09-09T03:41:33;100575.22;;;13.90;74.00
62725;BME280;49026;52.600;4.694;2022-09-09T03:43:59;100575.22;;;13.90;74.47
62725;BME280;49026;52.600;4.694;2022-09-09T03:46:25;100576.16;;;13.89;73.89
62725;BME280;49026;52.600;4.694;2022-09-09T03:48:51;100572.59;;;13.90;72.71
62725;BME280;49026;52.600;4.694;2022-09-09T03:51:19;100571.72;;;13.89;76.01
62725;BME280;49026;52.600;4.694;2022-09-09T03:53:45;100569.00;;;13.91;75.21
62725;BME280;49026;52.600;4.694;2022-09-09T03:56:10;100569.84;;;13.92;76.06
62725;BME280;49026;52.600;4.694;2022-09-09T03:58:39;100562.78;;;13.92;76.39
62725;BME280;49026;52.600;4.694;2022-09-09T04:01:14;100563.72;;;13.91;76.11
62725;BME280;49026;52.600;4.694;2022-09-09T04:03:41;100564.66;;;13.90;76.03
62725;BME280;49026;52.600;4.694;2022-09-09T04:06:12;100567.41;;;13.88;74.79
62725;BME280;49026;52.600;4.694;2022-09-09T04:08:39;100560.66;;;13.83;79.65
62725;BME280;49026;52.600;4.694;2022-09-09T04:11:05;100548.41;;;13.82;77.22
62725;BME280;49026;52.600;4.694;2022-09-09T04:13:34;100549.44;;;13.79;77.72
62725;BME280;49026;52.600;4.694;2022-09-09T04:16:01;100550.47;;;13.77;77.08
62725;BME280;49026;52.600;4.694;2022-09-09T04:18:27;100547.91;;;13.75;81.39
62725;BME280;49026;52.600;4.694;2022-09-09T04:20:56;100555.94;;;13.74;79.88
62725;BME280;49026;52.600;4.694;2022-09-09T04:23:25;100541.97;;;13.71;81.65
62725;BME280;49026;52.600;4.694;2022-09-09T04:25:54;100542.06;;;13.70;78.46
62725;BME280;49026;52.600;4.694;2022-09-09T04:28:22;100540.44;;;13.67;77.79
62725;BME280;49026;52.600;4.694;2022-09-09T04:30:47;100544.97;;;13.65;76.50
62725;BME280;49026;52.600;4.694;2022-09-09T04:33:16;100536.44;;;13.60;76.14
62725;BME280;49026;52.600;4.694;2022-09-09T04:35:47;100531.44;;;13.56;77.71
62725;BME280;49026;52.600;4.694;2022-09-09T04:38:16;100530.75;;;13.52;82.09
62725;BME280;49026;52.600;4.694;2022-09-09T04:40:50;100535.28;;;13.50;79.98
62725;BME280;49026;52.600;4.694;2022-09-09T04:43:17;100533.47;;;13.50;83.88
62725;BME280;49026;52.600;4.694;2022-09-09T04:45:47;100527.53;;;13.47;79.12
62725;BME280;49026;52.600;4.694;2022-09-09T04:48:13;100535.53;;;13.45;80.63
62725;BME280;49026;52.600;4.694;2022-09-09T04:50:38;100532.97;;;13.44;81.73
62725;BME280;49026;52.600;4.694;2022-09-09T04:53:05;100539.97;;;13.45;83.35
62725;BME280;49026;52.600;4.694;2022-09-09T04:55:34;100539.19;;;13.43;83.88
62725;BME280;49026;52.600;4.694;2022-09-09T04:58:04;100539.19;;;13.43;85.12
62725;BME280;49026;52.600;4.694;2022-09-09T05:00:30;100531.28;;;13.43;83.50
62725;BME280;49026;52.600;4.694;2022-09-09T05:03:02;100539.19;;;13.43;83.33
62725;BME280;49026;52.600;4.694;2022-09-09T05:05:29;100541.81;;;13.43;87.28
62725;BME280;49026;52.600;4.694;2022-09-09T05:07:54;100541.06;;;13.41;85.84
62725;BME280;49026;52.600;4.694;2022-09-09T05:10:19;100535.88;;;13.39;83.44
62725;BME280;49026;52.600;4.694;2022-09-09T05:12:52;100546.44;;;13.39;85.58
62725;BME280;49026;52.600;4.694;2022-09-09T05:15:18;100540.16;;;13.42;86.74
62725;BME280;49026;52.600;4.694;2022-09-09T05:17:43;100545.44;;;13.42;86.65
62725;BME280;49026;52.600;4.694;2022-09-09T05:20:09;100548.81;;;13.44;86.45
62725;BME280;49026;52.600;4.694;2022-09-09T05:22:37;100547.03;;;13.44;84.03
62725;BME280;49026;52.600;4.694;2022-09-09T05:25:03;100545.25;;;13.45;83.65
62725;BME280;49026;52.600;4.694;2022-09-09T05:27:28;100543.47;;;13.45;85.29
62725;BME280;49026;52.600;4.694;2022-09-09T05:29:56;100542.50;;;13.46;84.67
62725;BME280;49026;52.600;4.694;2022-09-09T05:32:22;100538.84;;;13.49;85.03
62725;BME280;49026;52.600;4.694;2022-09-09T05:34:47;100528.03;;;13.53;84.32
62725;BME280;49026;52.600;4.694;2022-09-09T05:37:13;100526.91;;;13.58;85.28
62725;BME280;49026;52.600;4.694;2022-09-09T05:39:41;100531.00;;;13.63;86.09
62725;BME280;49026;52.600;4.694;2022-09-09T05:42:08;100519.13;;;13.70;83.88
62725;BME280;49026;52.600;4.694;2022-09-09T05:44:33;100521.34;;;13.78;85.32
62725;BME280;49026;52.600;4.694;2022-09-09T05:46:59;100517.38;;;13.85;85.26
62725;BME280;49026;52.600;4.694;2022-09-09T05:49:24;100525.97;;;13.89;82.31
62725;BME280;49026;52.600;4.694;2022-09-09T05:51:52;100522.09;;;13.95;81.95
62725;BME280;49026;52.600;4.694;2022-09-09T05:54:20;100525.31;;;14.00;83.04
62725;BME280;49026;52.600;4.694;2022-09-09T05:56:45;100529.41;;;14.05;81.71
62725;BME280;49026;52.600;4.694;2022-09-09T05:59:11;100535.28;;;14.11;81.96
62725;BME280;49026;52.600;4.694;2022-09-09T06:01:38;100529.63;;;14.17;81.03
62725;BME280;49026;52.600;4.694;2022-09-09T06:04:08;100534.44;;;14.24;83.58
62725;BME280;49026;52.600;4.694;2022-09-09T06:06:37;100529.44;;;14.34;82.19
62725;BME280;49026;52.600;4.694;2022-09-09T06:09:07;100532.47;;;14.42;83.51
62725;BME280;49026;52.600;4.694;2022-09-09T06:11:38;100531.69;;;14.55;81.23
62725;BME280;49026;52.600;4.694;2022-09-09T06:14:04;100525.91;;;14.64;80.03
62725;BME280;49026;52.600;4.694;2022-09-09T06:16:30;100528.16;;;14.70;80.58
62725;BME280;49026;52.600;4.694;2022-09-09T06:19:00;100523.25;;;14.78;80.89
62725;BME280;49026;52.600;4.694;2022-09-09T06:23:53;100528.56;;;15.06;80.35
62725;BME280;49026;52.600;4.694;2022-09-09T06:26:19;100535.34;;;15.24;80.29
62725;BME280;49026;52.600;4.694;2022-09-09T06:28:46;100533.09;;;15.45;79.89
62725;BME280;49026;52.600;4.694;2022-09-09T06:31:14;100534.84;;;15.59;79.37
62725;BME280;49026;52.600;4.694;2022-09-09T06:33:41;100541.00;;;15.72;78.51
62725;BME280;49026;52.600;4.694;2022-09-09T06:36:11;100544.22;;;15.78;78.37
62725;BME280;49026;52.600;4.694;2022-09-09T06:38:36;100535.22;;;15.80;79.14
62725;BME280;49026;52.600;4.694;2022-09-09T06:41:02;100532.97;;;15.74;78.20
62725;BME280;49026;52.600;4.694;2022-09-09T06:43:28;100535.06;;;15.69;77.72
62725;BME280;49026;52.600;4.694;2022-09-09T06:45:58;100530.56;;;15.56;78.29
62725;BME280;49026;52.600;4.694;2022-09-09T06:48:24;100535.63;;;15.47;79.09
62725;BME280;49026;52.600;4.694;2022-09-09T06:50:59;100537.94;;;15.38;77.97
62725;BME280;49026;52.600;4.694;2022-09-09T06:53:25;100544.38;;;15.34;77.34
62725;BME280;49026;52.600;4.694;2022-09-09T06:55:51;100554.88;;;15.36;77.95
62725;BME280;49026;52.600;4.694;2022-09-09T06:58:16;100541.97;;;15.44;77.22
62725;BME280;49026;52.600;4.694;2022-09-09T07:00:41;100541.59;;;15.50;78.77
62725;BME280;49026;52.600;4.694;2022-09-09T07:03:07;100545.53;;;15.57;77.93
62725;BME280;49026;52.600;4.694;2022-09-09T07:05:34;100542.69;;;15.61;77.42
62725;BME280;49026;52.600;4.694;2022-09-09T07:07:59;100543.31;;;15.64;76.47
62725;BME280;49026;52.600;4.694;2022-09-09T07:10:25;100536.75;;;15.70;76.57
62725;BME280;49026;52.600;4.694;2022-09-09T07:12:51;100534.47;;;15.78;76.82
62725;BME280;49026;52.600;4.694;2022-09-09T07:15:20;100533.09;;;15.85;79.96
62725;BME280;49026;52.600;4.694;2022-09-09T07:17:48;100537.69;;;15.96;77.71
62725;BME280;49026;52.600;4.694;2022-09-09T07:20:14;100530.47;;;15.98;77.35
62725;BME280;49026;52.600;4.694;2022-09-09T07:22:40;100527.63;;;16.01;76.40
62725;BME280;49026;52.600;4.694;2022-09-09T07:25:08;100519.16;;;16.09;76.22
62725;BME280;49026;52.600;4.694;2022-09-09T07:27:36;100529.13;;;16.18;76.13
62725;BME280;49026;52.600;4.694;2022-09-09T07:30:01;100533.59;;;16.30;76.02
62725;BME280;49026;52.600;4.694;2022-09-09T07:32:27;100543.88;;;16.48;76.27
62725;BME280;49026;52.600;4.694;2022-09-09T07:34:52;100538.97;;;16.67;75.78
62725;BME280;49026;52.600;4.694;2022-09-09T07:37:20;100541.59;;;16.80;75.83
62725;BME280;49026;52.600;4.694;2022-09-09T07:39:45;100530.09;;;17.06;75.84
62725;BME280;49026;52.600;4.694;2022-09-09T07:42:12;100543.09;;;17.34;75.21
62725;BME280;49026;52.600;4.694;2022-09-09T07:44:40;100532.66;;;17.55;74.91
62725;BME280;49026;52.600;4.694;2022-09-09T07:47:06;100535.44;;;17.54;74.55
62725;BME280;49026;52.600;4.694;2022-09-09T07:49:31;100533.25;;;17.48;74.62
62725;BME280;49026;52.600;4.694;2022-09-09T07:51:57;100534.31;;;17.45;74.65
62725;BME280;49026;52.600;4.694;2022-09-09T07:54:23;100537.31;;;17.40;74.84
62725;BME280;49026;52.600;4.694;2022-09-09T07:56:49;100541.16;;;17.36;74.66
62725;BME280;49026;52.600;4.694;2022-09-09T07:59:14;100536.91;;;17.34;74.29
62725;BME280;49026;52.600;4.694;2022-09-09T08:01:45;100536.63;;;17.50;74.98
62725;BME280;49026;52.600;4.694;2022-09-09T08:04:15;100519.94;;;17.72;74.07
62725;BME280;49026;52.600;4.694;2022-09-09T08:06:50;100525.13;;;18.09;73.57
62725;BME280;49026;52.600;4.694;2022-09-09T08:09:20;100525.53;;;18.27;72.92
62725;BME280;49026;52.600;4.694;2022-09-09T08:11:46;100526.88;;;18.21;72.83
62725;BME280;49026;52.600;4.694;2022-09-09T08:14:12;100528.66;;;18.21;73.26
62725;BME280;49026;52.600;4.694;2022-09-09T08:16:41;100522.03;;;18.26;73.01
62725;BME280;49026;52.600;4.694;2022-09-09T08:19:07;100527.94;;;18.19;70.79
62725;BME280;49026;52.600;4.694;2022-09-09T08:21:37;100529.03;;;18.16;72.46
62725;BME280;49026;52.600;4.694;2022-09-09T08:24:04;100519.97;;;18.19;72.33
62725;BME280;49026;52.600;4.694;2022-09-09T08:26:34;100527.81;;;18.20;72.71
62725;BME280;49026;52.600;4.694;2022-09-09T08:29:02;100537.28;;;18.24;73.10
62725;BME280;49026;52.600;4.694;2022-09-09T08:31:39;100533.28;;;18.30;72.81
62725;BME280;49026;52.600;4.694;2022-09-09T08:34:07;100534.97;;;18.20;72.39
62725;BME280;49026;52.600;4.694;2022-09-09T08:36:36;100534.34;;;18.16;72.84
62725;BME280;49026;52.600;4.694;2022-09-09T08:39:04;100529.16;;;18.14;72.67
62725;BME280;49026;52.600;4.694;2022-09-09T08:44:51;100531.81;;;18.26;72.42
62725;BME280;49026;52.600;4.694;2022-09-09T08:50:25;100535.91;;;18.19;72.10
62725;BME280;49026;52.600;4.694;2022-09-09T08:53:01;100540.50;;;18.17;72.28
62725;BME280;49026;52.600;4.694;2022-09-09T09:03:53;100551.50;;;18.12;72.36
62725;BME280;49026;52.600;4.694;2022-09-09T09:09:29;100544.84;;;18.06;71.59
62725;BME280;49026;52.600;4.694;2022-09-09T09:11:59;100539.75;;;18.03;70.84
62725;BME280;49026;52.600;4.694;2022-09-09T09:14:28;100555.94;;;18.00;71.57
62725;BME280;49026;52.600;4.694;2022-09-09T09:16:59;100555.72;;;18.03;72.08
62725;BME280;49026;52.600;4.694;2022-09-09T09:19:25;100552.47;;;18.11;71.71
62725;BME280;49026;52.600;4.694;2022-09-09T09:22:10;100563.03;;;18.46;71.75
62725;BME280;49026;52.600;4.694;2022-09-09T09:27:31;100551.56;;;19.02;69.37
62725;BME280;49026;52.600;4.694;2022-09-09T09:29:58;100576.75;;;19.10;70.12
62725;BME280;49026;52.600;4.694;2022-09-09T09:32:26;100562.69;;;19.07;69.75
62725;BME280;49026;52.600;4.694;2022-09-09T09:34:57;100566.09;;;18.87;69.86
62725;BME280;49026;52.600;4.694;2022-09-09T09:37:31;100565.22;;;18.64;70.21
62725;BME280;49026;52.600;4.694;2022-09-09T09:40:08;100572.69;;;18.47;70.50
62725;BME280;49026;52.600;4.694;2022-09-09T09:42:34;100569.56;;;18.31;70.38
62725;BME280;49026;52.600;4.694;2022-09-09T09:45:27;100569.72;;;18.05;70.15
62725;BME280;49026;52.600;4.694;2022-09-09T09:48:05;100575.50;;;17.99;71.22
62725;BME280;49026;52.600;4.694;2022-09-09T09:50:33;100571.66;;;18.03;70.96
62725;BME280;49026;52.600;4.694;2022-09-09T09:53:02;100569.38;;;18.10;71.22
62725;BME280;49026;52.600;4.694;2022-09-09T09:55:33;100565.16;;;18.19;70.24
62725;BME280;49026;52.600;4.694;2022-09-09T09:58:04;100569.50;;;18.08;70.88
62725;BME280;49026;52.600;4.694;2022-09-09T10:00:30;100564.06;;;18.10;71.00
62725;BME280;49026;52.600;4.694;2022-09-09T10:02:56;100567.59;;;18.22;70.48
62725;BME280;49026;52.600;4.694;2022-09-09T10:05:24;100564.63;;;18.38;70.70
62725;BME280;49026;52.600;4.694;2022-09-09T10:08:13;100559.44;;;18.81;69.41
62725;BME280;49026;52.600;4.694;2022-09-09T10:16:31;100560.75;;;19.97;67.91
62725;BME280;49026;52.600;4.694;2022-09-09T10:19:06;100563.34;;;20.08;67.31
62725;BME280;49026;52.600;4.694;2022-09-09T10:30:13;100575.03;;;19.75;67.57
62725;BME280;49026;52.600;4.694;2022-09-09T10:38:20;100566.09;;;19.10;68.82
62725;BME280;49026;52.600;4.694;2022-09-09T10:40:38;100567.38;;;19.27;67.40
62725;BME280;49026;52.600;4.694;2022-09-09T10:48:52;100554.78;;;19.29;68.86
62725;BME280;49026;52.600;4.694;2022-09-09T10:51:42;100555.09;;;19.47;66.52
62725;BME280;49026;52.600;4.694;2022-09-09T10:54:43;100552.94;;;19.73;68.51
62725;BME280;49026;52.600;4.694;2022-09-09T10:57:31;100557.03;;;19.88;67.71
62725;BME280;49026;52.600;4.694;2022-09-09T11:00:14;100553.72;;;19.63;67.63
62725;BME280;49026;52.600;4.694;2022-09-09T11:02:43;100552.44;;;19.47;67.72
62725;BME280;49026;52.600;4.694;2022-09-09T11:05:19;100556.88;;;19.57;67.97
62725;BME280;49026;52.600;4.694;2022-09-09T11:08:05;100551.63;;;19.67;64.50
62725;BME280;49026;52.600;4.694;2022-09-09T11:10:40;100555.41;;;19.65;67.57
62725;BME280;49026;52.600;4.694;2022-09-09T11:13:14;100549.19;;;19.75;67.47
62725;BME280;49026;52.600;4.694;2022-09-09T11:15:46;100552.09;;;20.05;67.58
62725;BME280;49026;52.600;4.694;2022-09-09T11:18:20;100553.59;;;20.18;65.40
62725;BME280;49026;52.600;4.694;2022-09-09T11:20:53;100541.88;;;20.10;66.60
62725;BME280;49026;52.600;4.694;2022-09-09T11:23:32;100541.75;;;20.11;67.20
62725;BME280;49026;52.600;4.694;2022-09-09T11:26:03;100546.22;;;20.11;66.85
62725;BME280;49026;52.600;4.694;2022-09-09T11:37:09;100540.56;;;20.04;63.53
62725;BME280;49026;52.600;4.694;2022-09-09T11:40:08;100548.13;;;19.99;66.25
62725;BME280;49026;52.600;4.694;2022-09-09T11:42:35;100542.25;;;19.84;66.45
62725;BME280;49026;52.600;4.694;2022-09-09T11:47:52;100536.69;;;19.43;67.25
62725;BME280;49026;52.600;4.694;2022-09-09T11:52:47;100548.66;;;19.05;67.64
62725;BME280;49026;52.600;4.694;2022-09-09T12:00:49;100558.56;;;17.89;70.29
62725;BME280;49026;52.600;4.694;2022-09-09T12:03:40;100551.34;;;17.91;70.22
62725;BME280;49026;52.600;4.694;2022-09-09T12:06:14;100546.78;;;18.04;70.47
62725;BME280;49026;52.600;4.694;2022-09-09T12:08:43;100550.69;;;18.23;70.20
62725;BME280;49026;52.600;4.694;2022-09-09T12:11:10;100542.94;;;18.42;69.72
62725;BME280;49026;52.600;4.694;2022-09-09T12:13:36;100537.41;;;18.57;69.40
62725;BME280;49026;52.600;4.694;2022-09-09T12:16:01;100541.03;;;18.78;69.38
62725;BME280;49026;52.600;4.694;2022-09-09T12:18:39;100531.38;;;19.00;69.76
62725;BME280;49026;52.600;4.694;2022-09-09T12:21:15;100531.19;;;19.13;69.67
62725;BME280;49026;52.600;4.694;2022-09-09T12:23:50;100530.13;;;19.04;69.23
62725;BME280;49026;52.600;4.694;2022-09-09T12:27:11;100523.38;;;19.00;69.18
62725;BME280;49026;52.600;4.694;2022-09-09T12:32:10;100518.06;;;19.00;70.01
62725;BME280;49026;52.600;4.694;2022-09-09T12:34:47;100520.16;;;19.29;69.62
62725;BME280;49026;52.600;4.694;2022-09-09T12:37:38;100510.44;;;19.92;67.98
62725;BME280;49026;52.600;4.694;2022-09-09T12:40:27;100481.50;;;20.09;67.63
62725;BME280;49026;52.600;4.694;2022-09-09T12:42:53;100520.72;;;20.80;67.47
62725;BME280;49026;52.600;4.694;2022-09-09T12:45:22;100517.31;;;21.08;65.63
62725;BME280;49026;52.600;4.694;2022-09-09T12:48:01;100514.38;;;21.21;66.33
62725;BME280;49026;52.600;4.694;2022-09-09T12:50:31;100510.63;;;21.63;65.20
62725;BME280;49026;52.600;4.694;2022-09-09T12:53:26;100513.00;;;21.95;60.81
62725;BME280;49026;52.600;4.694;2022-09-09T12:56:06;100504.25;;;21.93;64.63
62725;BME280;49026;52.600;4.694;2022-09-09T12:58:36;100503.28;;;21.84;64.75
62725;BME280;49026;52.600;4.694;2022-09-09T13:01:04;100511.31;;;21.65;63.02
62725;BME280;49026;52.600;4.694;2022-09-09T13:03:30;100509.03;;;21.41;64.32
62725;BME280;49026;52.600;4.694;2022-09-09T13:06:18;100504.31;;;21.64;59.05
62725;BME280;49026;52.600;4.694;2022-09-09T13:08:44;100516.09;;;21.71;64.77
62725;BME280;49026;52.600;4.694;2022-09-09T13:11:18;100518.91;;;21.60;65.13
62725;BME280;49026;52.600;4.694;2022-09-09T13:13:52;100526.06;;;21.20;64.71
62725;BME280;49026;52.600;4.694;2022-09-09T13:16:34;100533.16;;;20.90;63.76
62725;BME280;49026;52.600;4.694;2022-09-09T13:19:14;100531.97;;;20.73;64.39
62725;BME280;49026;52.600;4.694;2022-09-09T13:21:40;100525.75;;;20.63;65.63
62725;BME280;49026;52.600;4.694;2022-09-09T13:24:21;100523.94;;;20.43;66.27
62725;BME280;49026;52.600;4.694;2022-09-09T13:27:04;100528.75;;;20.49;66.68
62725;BME280;49026;52.600;4.694;2022-09-09T13:29:31;100528.91;;;20.88;66.71
62725;BME280;49026;52.600;4.694;2022-09-09T13:32:26;100517.81;;;21.72;61.19
62725;BME280;49026;52.600;4.694;2022-09-09T13:35:00;100524.81;;;21.73;64.38
62725;BME280;49026;52.600;4.694;2022-09-09T13:39:56;100513.28;;;21.82;63.72
62725;BME280;49026;52.600;4.694;2022-09-09T13:42:30;100518.63;;;21.53;64.33
62725;BME280;49026;52.600;4.694;2022-09-09T13:44:57;100515.66;;;21.27;65.10
62725;BME280;49026;52.600;4.694;2022-09-09T13:47:30;100521.06;;;20.96;65.80
62725;BME280;49026;52.600;4.694;2022-09-09T13:50:25;100518.22;;;20.78;66.17
62725;BME280;49026;52.600;4.694;2022-09-09T13:52:57;100522.31;;;20.61;66.47
62725;BME280;49026;52.600;4.694;2022-09-09T13:55:27;100522.00;;;20.45;66.81
62725;BME280;49026;52.600;4.694;2022-09-09T13:58:00;100525.41;;;20.26;67.21
62725;BME280;49026;52.600;4.694;2022-09-09T14:00:29;100523.78;;;20.13;67.26
62725;BME280;49026;52.600;4.694;2022-09-09T14:02:56;100528.47;;;19.79;67.06
62725;BME280;49026;52.600;4.694;2022-09-09T14:05:22;100520.00;;;19.41;67.57
62725;BME280;49026;52.600;4.694;2022-09-09T14:07:50;100523.84;;;19.16;68.07
62725;BME280;49026;52.600;4.694;2022-09-09T14:10:15;100530.41;;;18.90;68.67
62725;BME280;49026;52.600;4.694;2022-09-09T14:12:40;100530.63;;;18.52;69.15
62725;BME280;49026;52.600;4.694;2022-09-09T14:15:09;100526.50;;;18.14;69.78
62725;BME280;49026;52.600;4.694;2022-09-09T14:17:37;100538.75;;;17.93;70.07
62725;BME280;49026;52.600;4.694;2022-09-09T14:20:04;100529.44;;;17.87;69.72
62725;BME280;49026;52.600;4.694;2022-09-09T14:22:39;100530.56;;;17.96;69.97
62725;BME280;49026;52.600;4.694;2022-09-09T14:25:05;100526.72;;;18.11;69.42
62725;BME280;49026;52.600;4.694;2022-09-09T14:27:31;100534.97;;;18.20;70.17
62725;BME280;49026;52.600;4.694;2022-09-09T14:29:57;100532.78;;;18.25;69.17
62725;BME280;49026;52.600;4.694;2022-09-09T14:32:23;100529.78;;;18.29;69.19
62725;BME280;49026;52.600;4.694;2022-09-09T14:34:48;100537.00;;;18.27;70.13
62725;BME280;49026;52.600;4.694;2022-09-09T14:37:17;100544.88;;;18.29;69.31
62725;BME280;49026;52.600;4.694;2022-09-09T14:39:43;100540.41;;;18.29;69.26
62725;BME280;49026;52.600;4.694;2022-09-09T14:42:10;100537.38;;;18.34;69.09
62725;BME280;49026;52.600;4.694;2022-09-09T14:44:36;100532.69;;;18.38;69.38
62725;BME280;49026;52.600;4.694;2022-09-09T14:47:05;100536.44;;;18.35;69.63
62725;BME280;49026;52.600;4.694;2022-09-09T14:49:33;100542.22;;;18.29;70.42
62725;BME280;49026;52.600;4.694;2022-09-09T14:51:58;100547.28;;;18.21;70.07